createdAt,value
2017-09-11T00:02:18.430Z,99.90
2017-09-11T00:04:46.491Z,99.90
2017-09-11T00:07:13.549Z,99.90
2017-09-11T00:09:40.606Z,99.90
2017-09-11T00:12:07.946Z,99.90
2017-09-11T00:14:36.026Z,99.90
2017-09-11T00:17:02.338Z,99.90
2017-09-11T00:19:29.395Z,99.90
2017-09-11T00:21:56.438Z,99.90
2017-09-11T00:24:23.490Z,99.90
2017-09-11T00:26:51.577Z,99.90
2017-09-11T00:29:17.889Z,99.90
2017-09-11T00:31:44.962Z,99.90
2017-09-11T00:34:11.278Z,99.90
2017-09-11T00:36:37.610Z,99.90
2017-09-11T00:39:03.969Z,99.90
2017-09-11T00:41:30.322Z,99.90
2017-09-11T00:43:57.672Z,99.90
2017-09-11T00:46:24.039Z,99.90
2017-09-11T00:48:51.131Z,99.90
2017-09-11T00:51:17.454Z,99.90
2017-09-11T00:53:43.835Z,99.90
2017-09-11T00:56:10.180Z,99.90
2017-09-11T00:58:37.242Z,99.90
2017-09-11T01:01:04.307Z,99.90
2017-09-11T01:03:30.637Z,99.90
2017-09-11T01:05:56.943Z,99.90
2017-09-11T01:08:24.010Z,99.90
2017-09-11T01:10:50.335Z,99.90
2017-09-11T01:13:16.674Z,99.90
2017-09-11T01:15:43.008Z,99.90
2017-09-11T01:18:09.357Z,99.90
2017-09-11T01:20:35.709Z,99.90
2017-09-11T01:23:02.060Z,99.90
2017-09-11T01:25:28.406Z,99.90
2017-09-11T01:27:55.510Z,99.90
2017-09-11T01:30:21.839Z,99.90
2017-09-11T01:32:48.146Z,99.90
2017-09-11T01:35:14.470Z,99.90
2017-09-11T01:37:40.766Z,99.90
2017-09-11T01:40:07.811Z,99.90
2017-09-11T01:42:34.122Z,99.90
2017-09-11T01:45:00.435Z,99.90
2017-09-11T01:47:26.735Z,99.90
2017-09-11T01:49:53.078Z,99.90
2017-09-11T01:52:19.419Z,99.90
2017-09-11T01:54:45.719Z,99.90
2017-09-11T01:57:13.810Z,99.90
2017-09-11T01:59:41.151Z,99.90
2017-09-11T02:02:08.450Z,99.90
2017-09-11T02:04:34.755Z,99.90
2017-09-11T02:07:01.058Z,99.90
2017-09-11T02:09:28.098Z,99.90
2017-09-11T02:11:55.154Z,99.90
2017-09-11T02:14:21.463Z,99.90
2017-09-11T02:16:48.538Z,99.90
2017-09-11T02:19:14.859Z,99.90
2017-09-11T02:21:42.934Z,99.90
2017-09-11T02:24:09.986Z,99.90
2017-09-11T02:26:36.341Z,99.90
2017-09-11T02:29:02.680Z,99.90
2017-09-11T02:31:29.010Z,99.90
2017-09-11T02:33:55.334Z,99.90
2017-09-11T02:36:21.685Z,99.90
2017-09-11T02:38:47.986Z,99.90
2017-09-11T02:41:14.296Z,99.90
2017-09-11T02:43:40.606Z,99.90
2017-09-11T02:46:07.652Z,99.90
2017-09-11T02:48:34.698Z,99.90
2017-09-11T02:51:01.763Z,99.90
2017-09-11T02:53:28.815Z,99.90
2017-09-11T02:55:55.863Z,99.90
2017-09-11T02:58:22.906Z,99.90
2017-09-11T03:00:50.004Z,99.90
2017-09-11T03:03:16.337Z,99.90
2017-09-11T03:05:42.642Z,99.90
2017-09-11T03:08:09.943Z,99.90
2017-09-11T03:10:36.255Z,99.90
2017-09-11T03:13:02.555Z,99.90
2017-09-11T03:15:28.866Z,99.90
2017-09-11T03:17:55.173Z,99.90
2017-09-11T03:20:22.227Z,99.90
2017-09-11T03:22:49.269Z,99.90
2017-09-11T03:25:16.578Z,99.90
2017-09-11T03:27:42.878Z,99.90
2017-09-11T03:30:09.935Z,99.90
2017-09-11T03:32:36.238Z,99.90
2017-09-11T03:35:03.571Z,99.90
2017-09-11T03:37:29.882Z,99.90
2017-09-11T03:39:56.187Z,99.90
2017-09-11T03:42:22.492Z,99.90
2017-09-11T03:44:49.559Z,99.90
2017-09-11T03:47:15.871Z,99.90
2017-09-11T03:49:42.922Z,99.90
2017-09-11T03:52:09.993Z,99.90
2017-09-11T03:54:36.350Z,99.90
2017-09-11T03:57:02.657Z,99.90
2017-09-11T03:59:28.970Z,99.90
2017-09-11T04:01:56.019Z,99.90
2017-09-11T04:04:23.099Z,99.90
2017-09-11T04:06:49.438Z,99.90
2017-09-11T04:09:15.735Z,99.90
2017-09-11T04:11:42.035Z,99.90
2017-09-11T04:14:09.092Z,99.90
2017-09-11T04:16:36.154Z,99.90
2017-09-11T04:19:03.254Z,99.90
2017-09-11T04:21:30.594Z,99.90
2017-09-11T04:23:56.899Z,99.90
2017-09-11T04:26:23.206Z,99.90
2017-09-11T04:28:50.274Z,99.90
2017-09-11T04:31:16.574Z,99.90
2017-09-11T04:33:43.626Z,99.90
2017-09-11T04:36:10.674Z,99.90
2017-09-11T04:38:37.738Z,99.90
2017-09-11T04:41:04.811Z,99.90
2017-09-11T04:43:31.110Z,99.90
2017-09-11T04:45:58.199Z,99.90
2017-09-11T04:48:24.505Z,99.90
2017-09-11T04:50:50.821Z,99.90
2017-09-11T04:53:17.871Z,99.90
2017-09-11T04:55:44.918Z,99.90
2017-09-11T04:58:11.966Z,99.90
2017-09-11T05:00:39.999Z,99.90
2017-09-11T05:03:06.331Z,99.90
2017-09-11T05:05:32.638Z,99.90
2017-09-11T05:07:58.938Z,99.90
2017-09-11T05:10:25.274Z,99.90
2017-09-11T05:12:51.581Z,99.90
2017-09-11T05:15:18.635Z,99.90
2017-09-11T05:17:45.682Z,99.90
2017-09-11T05:20:12.731Z,99.90
2017-09-11T05:22:40.791Z,99.90
2017-09-11T05:25:07.106Z,99.90
2017-09-11T05:27:33.410Z,99.90
2017-09-11T05:29:59.750Z,99.90
2017-09-11T05:32:26.062Z,99.90
2017-09-11T05:34:52.381Z,99.90
2017-09-11T05:37:18.702Z,99.90
2017-09-11T05:39:45.014Z,99.90
2017-09-11T05:42:12.082Z,99.90
2017-09-11T05:44:38.398Z,99.90
2017-09-11T05:47:06.503Z,99.90
2017-09-11T05:49:32.818Z,99.90
2017-09-11T05:51:59.138Z,99.90
2017-09-11T05:54:25.528Z,99.90
2017-09-11T05:56:51.835Z,99.90
2017-09-11T05:59:18.144Z,99.90
2017-09-11T06:01:44.454Z,99.90
2017-09-11T06:04:11.515Z,99.90
2017-09-11T06:06:37.822Z,99.90
2017-09-11T06:09:04.857Z,99.90
2017-09-11T06:11:31.942Z,99.90
2017-09-11T06:13:59.266Z,99.90
2017-09-11T06:16:26.346Z,99.90
2017-09-11T06:18:52.687Z,99.90
2017-09-11T06:21:19.003Z,99.90
2017-09-11T06:23:45.318Z,99.90
2017-09-11T06:26:12.374Z,99.90
2017-09-11T06:28:38.678Z,99.90
2017-09-11T06:31:04.977Z,99.90
2017-09-11T06:33:31.278Z,99.90
2017-09-11T06:35:57.589Z,99.90
2017-09-11T06:38:23.906Z,99.90
2017-09-11T06:40:50.950Z,99.90
2017-09-11T06:43:18.119Z,99.90
2017-09-11T06:45:46.167Z,99.90
2017-09-11T06:48:13.214Z,99.90
2017-09-11T06:50:40.254Z,99.90
2017-09-11T06:53:07.290Z,99.90
2017-09-11T06:55:33.590Z,99.90
2017-09-11T06:57:59.889Z,99.90
2017-09-11T07:00:26.186Z,99.90
2017-09-11T07:02:52.495Z,99.90
2017-09-11T07:05:18.812Z,99.90
2017-09-11T07:07:45.148Z,99.90
2017-09-11T07:10:12.492Z,99.90
2017-09-11T07:12:51.038Z,99.90
2017-09-11T07:15:17.342Z,99.90
2017-09-11T07:17:43.678Z,99.90
2017-09-11T07:20:09.978Z,99.90
2017-09-11T07:22:36.290Z,99.90
2017-09-11T07:25:03.351Z,99.90
2017-09-11T07:27:29.657Z,99.90
2017-09-11T07:29:55.970Z,99.90
2017-09-11T07:32:22.267Z,99.90
2017-09-11T07:34:48.570Z,99.90
2017-09-11T07:37:15.614Z,99.90
2017-09-11T07:39:41.918Z,99.90
2017-09-11T07:42:08.222Z,99.90
2017-09-11T07:44:34.517Z,99.90
2017-09-11T07:47:00.822Z,99.90
2017-09-11T07:49:27.871Z,99.90
2017-09-11T07:51:54.182Z,99.90
2017-09-11T07:54:20.489Z,99.90
2017-09-11T07:56:47.794Z,99.90
2017-09-11T07:59:14.102Z,99.90
2017-09-11T08:01:40.410Z,99.90
2017-09-11T08:04:06.720Z,99.90
2017-09-11T08:06:33.018Z,99.90
2017-09-11T08:09:00.099Z,99.90
2017-09-11T08:11:26.401Z,99.90
2017-09-11T08:13:52.706Z,99.90
2017-09-11T08:16:20.022Z,99.90
2017-09-11T08:18:47.025Z,99.90
2017-09-11T08:21:14.098Z,99.90
2017-09-11T08:23:40.408Z,99.90
2017-09-11T08:26:06.714Z,99.90
2017-09-11T08:28:33.766Z,99.90
2017-09-11T08:31:00.807Z,99.90
2017-09-11T08:33:27.114Z,99.90
2017-09-11T08:35:53.414Z,99.90
2017-09-11T08:38:19.723Z,99.90
2017-09-11T08:40:46.039Z,99.90
2017-09-11T08:43:13.102Z,99.90
2017-09-11T08:45:39.407Z,99.90
2017-09-11T08:48:06.557Z,99.90
2017-09-11T08:50:33.629Z,99.90
2017-09-11T08:52:59.921Z,99.90
2017-09-11T08:55:26.222Z,99.90
2017-09-11T08:57:52.554Z,99.90
2017-09-11T09:00:18.872Z,99.90
2017-09-11T09:02:45.219Z,99.90
2017-09-11T09:05:11.550Z,99.90
2017-09-11T09:07:38.858Z,99.90
2017-09-11T09:10:06.618Z,99.90
2017-09-11T09:12:33.699Z,99.90
2017-09-11T09:15:00.035Z,99.90
2017-09-11T09:17:26.359Z,99.90
2017-09-11T09:19:52.671Z,99.90
2017-09-11T09:22:18.978Z,99.90
2017-09-11T09:24:46.110Z,99.90
2017-09-11T09:27:13.437Z,99.90
2017-09-11T09:29:39.775Z,99.90
2017-09-11T09:32:07.127Z,99.90
2017-09-11T09:34:33.454Z,99.90
2017-09-11T09:36:59.786Z,99.90
2017-09-11T09:39:26.078Z,99.90
2017-09-11T09:41:53.214Z,99.90
2017-09-11T09:44:19.562Z,99.90
2017-09-11T09:46:45.863Z,99.90
2017-09-11T09:49:12.923Z,99.90
2017-09-11T09:51:39.970Z,99.90
2017-09-11T09:54:07.017Z,99.90
2017-09-11T09:56:34.063Z,99.90
2017-09-11T09:59:01.127Z,99.90
2017-09-11T10:01:27.446Z,99.90
2017-09-11T10:03:55.518Z,99.90
2017-09-11T10:06:22.583Z,99.90
2017-09-11T10:08:48.894Z,99.90
2017-09-11T10:11:15.938Z,99.90
2017-09-11T10:13:43.098Z,99.90
2017-09-11T10:16:09.419Z,99.90
2017-09-11T10:18:36.471Z,99.90
2017-09-11T10:21:03.526Z,99.90
2017-09-11T10:23:29.831Z,99.90
2017-09-11T10:25:56.894Z,99.90
2017-09-11T10:28:24.007Z,99.90
2017-09-11T10:30:50.318Z,99.90
2017-09-11T10:33:17.672Z,99.90
2017-09-11T10:35:44.002Z,99.90
2017-09-11T10:38:10.294Z,99.90
2017-09-11T10:40:37.350Z,99.90
2017-09-11T10:43:03.658Z,99.90
2017-09-11T10:45:30.727Z,99.90
2017-09-11T10:47:57.763Z,99.90
2017-09-11T10:50:24.818Z,99.90
2017-09-11T10:52:51.850Z,99.90
2017-09-11T10:55:19.886Z,99.90
2017-09-11T10:57:46.182Z,99.90
2017-09-11T11:00:12.515Z,99.90
2017-09-11T11:02:39.817Z,99.90
2017-09-11T11:05:06.127Z,99.90
2017-09-11T11:07:32.426Z,98.60
2017-09-11T11:09:58.735Z,97.60
2017-09-11T11:12:25.766Z,98.30
2017-09-11T11:14:52.060Z,98.30
2017-09-11T11:17:18.356Z,97.20
2017-09-11T11:19:45.398Z,93.30
2017-09-11T11:22:12.439Z,95.30
2017-09-11T11:24:39.497Z,95.90
2017-09-11T11:27:06.555Z,94.30
2017-09-11T11:29:32.850Z,94.40
2017-09-11T11:31:59.891Z,92.00
2017-09-11T11:34:27.705Z,94.30
2017-09-11T11:36:54.002Z,94.30
2017-09-11T11:39:21.070Z,92.70
2017-09-11T11:41:47.366Z,92.70
2017-09-11T11:44:13.663Z,92.70
2017-09-11T11:46:39.962Z,92.50
2017-09-11T11:49:07.312Z,92.80
2017-09-11T11:51:33.602Z,93.00
2017-09-11T11:53:59.906Z,92.10
2017-09-11T11:56:26.205Z,92.20
2017-09-11T11:58:52.505Z,94.30
2017-09-11T12:01:19.545Z,92.10
2017-09-11T12:03:45.851Z,92.20
2017-09-11T12:06:13.188Z,92.10
2017-09-11T12:08:39.493Z,91.50
2017-09-11T12:11:06.561Z,93.10
2017-09-11T12:13:32.857Z,93.10
2017-09-11T12:15:59.898Z,92.30
2017-09-11T12:18:26.946Z,92.20
2017-09-11T12:20:54.996Z,92.40
2017-09-11T12:23:22.328Z,92.10
2017-09-11T12:25:48.658Z,92.20
2017-09-11T12:28:14.968Z,91.70
2017-09-11T12:30:42.290Z,92.50
2017-09-11T12:33:09.331Z,92.40
2017-09-11T12:35:35.671Z,92.40
2017-09-11T12:38:03.776Z,93.80
2017-09-11T12:40:30.074Z,93.80
2017-09-11T12:42:57.129Z,95.20
2017-09-11T12:45:24.172Z,95.30
2017-09-11T12:47:51.207Z,94.50
2017-09-11T12:50:18.262Z,94.90
2017-09-11T12:52:45.294Z,93.90
2017-09-11T12:55:12.334Z,93.80
2017-09-11T12:57:39.374Z,92.90
2017-09-11T13:00:05.680Z,92.90
2017-09-11T13:02:31.979Z,93.00
2017-09-11T13:05:00.039Z,91.30
2017-09-11T13:07:26.366Z,91.20
2017-09-11T13:09:53.429Z,93.60
2017-09-11T13:12:20.475Z,92.70
2017-09-11T13:14:48.115Z,92.70
2017-09-11T13:17:15.159Z,94.30
2017-09-11T13:19:42.198Z,95.10
2017-09-11T13:22:08.491Z,95.30
2017-09-11T13:24:34.795Z,93.80
2017-09-11T13:27:01.119Z,95.50
2017-09-11T13:29:27.419Z,95.40
2017-09-11T13:31:54.463Z,94.90
2017-09-11T13:34:21.766Z,95.00
2017-09-11T13:36:48.074Z,94.90
2017-09-11T13:39:15.122Z,95.80
2017-09-11T13:41:42.207Z,96.70
2017-09-11T13:44:08.510Z,96.70
2017-09-11T13:46:34.818Z,94.30
2017-09-11T13:49:01.863Z,95.10
2017-09-11T13:51:28.911Z,93.40
2017-09-11T13:53:55.946Z,93.40
2017-09-11T13:56:23.295Z,93.30
2017-09-11T13:58:49.590Z,93.40
2017-09-11T14:01:15.891Z,94.10
2017-09-11T14:03:42.187Z,93.40
2017-09-11T14:06:08.511Z,93.70
2017-09-11T14:08:34.815Z,94.90
2017-09-11T14:11:01.110Z,95.00
2017-09-11T14:13:29.182Z,93.30
2017-09-11T14:15:55.471Z,93.30
2017-09-11T14:18:21.786Z,91.40
2017-09-11T14:20:48.105Z,91.40
2017-09-11T14:23:14.439Z,91.40
2017-09-11T14:25:40.774Z,91.20
2017-09-11T14:28:07.095Z,90.90
2017-09-11T14:30:33.402Z,92.10
2017-09-11T14:32:59.707Z,91.60
2017-09-11T14:35:26.746Z,93.50
2017-09-11T14:37:53.794Z,94.30
2017-09-11T14:40:20.830Z,95.20
2017-09-11T14:42:47.155Z,95.10
2017-09-11T14:45:13.546Z,95.80
2017-09-11T14:47:39.890Z,95.50
2017-09-11T14:50:06.191Z,96.10
2017-09-11T14:52:32.498Z,96.60
2017-09-11T14:54:59.549Z,97.20
2017-09-11T14:57:26.595Z,96.40
2017-09-11T14:59:53.663Z,97.50
2017-09-11T15:02:20.735Z,98.00
2017-09-11T15:04:47.106Z,97.70
2017-09-11T15:07:13.406Z,99.40
2017-09-11T15:09:39.710Z,98.20
2017-09-11T15:12:06.014Z,98.50
2017-09-11T15:14:32.316Z,99.50
2017-09-11T15:16:58.627Z,99.90
2017-09-11T15:19:24.936Z,99.10
2017-09-11T15:21:53.014Z,99.90
2017-09-11T15:24:19.335Z,99.90
2017-09-11T15:26:45.662Z,99.90
2017-09-11T15:29:11.959Z,99.90
2017-09-11T15:31:38.290Z,99.90
2017-09-11T15:34:05.363Z,99.90
2017-09-11T15:36:31.715Z,99.90
2017-09-11T15:38:58.038Z,99.90
2017-09-11T15:41:24.355Z,99.90
2017-09-11T15:43:50.657Z,99.90
2017-09-11T15:46:17.974Z,99.90
2017-09-11T15:48:45.338Z,99.90
2017-09-11T15:51:11.643Z,99.90
2017-09-11T15:53:39.553Z,99.90
2017-09-11T15:56:05.891Z,99.90
2017-09-11T15:58:32.222Z,99.90
2017-09-11T16:00:58.530Z,99.90
2017-09-11T16:03:24.851Z,99.90
2017-09-11T16:05:51.176Z,99.90
2017-09-11T16:08:17.478Z,99.90
2017-09-11T16:10:43.803Z,99.90
2017-09-11T16:13:10.098Z,99.90
2017-09-11T16:15:36.427Z,99.90
2017-09-11T16:18:02.731Z,99.90
2017-09-11T16:20:29.043Z,99.90
2017-09-11T16:22:55.487Z,99.90
2017-09-11T16:25:21.793Z,99.90
2017-09-11T16:27:48.129Z,99.90
2017-09-11T16:30:14.479Z,99.90
2017-09-11T16:32:40.807Z,99.90
2017-09-11T16:35:07.141Z,99.90
2017-09-11T16:37:33.845Z,99.90
2017-09-11T16:40:00.898Z,99.90
2017-09-11T16:42:27.226Z,99.90
2017-09-11T16:44:54.278Z,99.90
2017-09-11T16:47:21.322Z,99.90
2017-09-11T16:49:47.628Z,99.90
2017-09-11T16:52:13.933Z,99.90
2017-09-11T16:54:40.262Z,99.90
2017-09-11T16:57:06.758Z,99.90
2017-09-11T16:59:33.085Z,99.90
2017-09-11T17:01:59.410Z,99.90
2017-09-11T17:04:27.206Z,99.90
2017-09-11T17:06:53.523Z,99.90
2017-09-11T17:09:20.022Z,99.90
2017-09-11T17:11:47.089Z,99.90
2017-09-11T17:14:13.423Z,99.90
2017-09-11T17:16:39.753Z,99.90
2017-09-11T17:19:06.834Z,99.90
2017-09-11T17:21:33.150Z,99.90
2017-09-11T17:23:59.461Z,99.90
2017-09-11T17:26:26.503Z,99.90
2017-09-11T17:28:52.830Z,99.90
2017-09-11T17:31:19.880Z,99.90
2017-09-11T17:33:46.926Z,99.90
2017-09-11T17:36:13.979Z,99.90
2017-09-11T17:38:42.042Z,99.90
2017-09-11T17:41:09.114Z,99.90
2017-09-11T17:43:35.430Z,99.90
2017-09-11T17:46:02.507Z,99.90
2017-09-11T17:48:28.834Z,99.90
2017-09-11T17:50:55.142Z,99.90
2017-09-11T17:53:59.202Z,99.90
2017-09-11T17:56:25.509Z,99.90
2017-09-11T17:58:51.810Z,99.90
2017-09-11T18:01:18.870Z,99.90
2017-09-11T18:03:45.182Z,99.90
2017-09-11T18:06:12.239Z,99.90
2017-09-11T18:08:39.319Z,99.90
2017-09-11T18:11:05.653Z,99.90
2017-09-11T18:13:31.954Z,99.90
2017-09-11T18:15:58.266Z,99.90
2017-09-11T18:18:26.313Z,99.90
2017-09-11T18:20:52.622Z,99.90
2017-09-11T18:23:18.930Z,99.90
2017-09-11T18:25:46.266Z,99.90
2017-09-11T18:28:12.577Z,99.90
2017-09-11T18:30:39.634Z,99.90
2017-09-11T18:33:06.712Z,99.90
2017-09-11T18:35:33.023Z,99.90
2017-09-11T18:37:59.372Z,99.90
2017-09-11T18:40:25.758Z,99.90
2017-09-11T18:42:52.106Z,99.90
2017-09-11T18:45:19.155Z,99.90
2017-09-11T18:47:46.225Z,99.90
2017-09-11T18:50:13.526Z,99.90
2017-09-11T18:52:39.837Z,99.90
2017-09-11T18:55:06.152Z,99.90
2017-09-11T18:57:32.494Z,99.90
2017-09-11T18:59:58.813Z,99.90
2017-09-11T19:02:25.116Z,99.90
2017-09-11T19:04:52.162Z,99.90
2017-09-11T19:07:19.202Z,99.90
2017-09-11T19:09:46.255Z,99.90
2017-09-11T19:12:13.302Z,99.90
2017-09-11T19:14:40.371Z,99.90
2017-09-11T19:17:12.698Z,99.90
2017-09-11T19:19:39.907Z,99.90
2017-09-11T19:22:06.218Z,99.90
2017-09-11T19:24:32.565Z,99.90
2017-09-11T19:26:58.903Z,99.90
2017-09-11T19:29:27.765Z,99.90
2017-09-11T19:31:55.074Z,99.90
2017-09-11T19:34:22.728Z,99.90
2017-09-11T19:36:49.245Z,99.90
2017-09-11T19:39:16.628Z,99.90
2017-09-11T19:41:45.402Z,99.90
2017-09-11T19:44:11.704Z,99.90
2017-09-11T19:46:38.039Z,99.90
2017-09-11T19:49:04.391Z,99.90
2017-09-11T19:51:30.703Z,99.90
2017-09-11T19:53:57.069Z,99.90
2017-09-11T19:56:23.769Z,99.90
2017-09-11T19:58:50.115Z,99.90
2017-09-11T20:01:16.433Z,99.90
2017-09-11T20:03:42.738Z,99.90
2017-09-11T20:06:09.690Z,99.90
2017-09-11T20:08:36.047Z,99.90
2017-09-11T20:11:03.806Z,99.90
2017-09-11T20:13:30.144Z,99.90
2017-09-11T20:15:56.451Z,99.90
2017-09-11T20:18:22.745Z,99.90
2017-09-11T20:20:49.051Z,99.90
2017-09-11T20:23:15.384Z,99.90
2017-09-11T20:25:41.703Z,99.90
2017-09-11T20:28:08.007Z,99.90
2017-09-11T20:30:34.331Z,99.90
2017-09-11T20:33:00.639Z,99.90
2017-09-11T20:35:27.686Z,99.90
2017-09-11T20:37:54.720Z,99.90
2017-09-11T20:40:22.819Z,99.90
2017-09-11T20:42:49.174Z,99.90
2017-09-11T20:45:15.563Z,99.90
2017-09-11T20:47:42.631Z,99.90
2017-09-11T20:50:08.933Z,99.90
2017-09-11T20:52:35.245Z,99.90
2017-09-11T20:55:01.551Z,99.90
2017-09-11T20:57:27.858Z,99.90
2017-09-11T20:59:54.173Z,99.90
2017-09-11T21:02:21.218Z,99.90
2017-09-11T21:04:48.298Z,99.90
2017-09-11T21:07:14.606Z,99.90
2017-09-11T21:09:40.918Z,99.90
2017-09-11T21:12:07.276Z,99.90
2017-09-11T21:14:33.600Z,99.90
2017-09-11T21:16:59.937Z,99.90
2017-09-11T21:19:26.279Z,99.90
2017-09-11T21:21:52.583Z,99.90
2017-09-11T21:24:18.886Z,99.90
2017-09-11T21:26:45.194Z,99.90
2017-09-11T21:29:11.558Z,99.90
2017-09-11T21:31:38.614Z,99.90
2017-09-11T21:34:04.921Z,99.90
2017-09-11T21:36:31.223Z,99.90
2017-09-11T21:38:57.542Z,99.90
2017-09-11T21:41:23.850Z,99.90
2017-09-11T21:43:50.163Z,99.90
2017-09-11T21:46:17.218Z,99.90
2017-09-11T21:48:43.533Z,99.90
2017-09-11T21:51:10.586Z,99.90
2017-09-11T21:53:38.638Z,99.90
2017-09-11T21:56:04.937Z,99.90
2017-09-11T21:58:31.250Z,99.90
2017-09-11T22:00:57.551Z,99.90
2017-09-11T22:03:24.590Z,99.90
2017-09-11T22:05:51.649Z,99.90
2017-09-11T22:08:17.954Z,99.90
2017-09-11T22:10:44.256Z,99.90
2017-09-11T22:13:11.555Z,99.90
2017-09-11T22:15:38.678Z,99.90
2017-09-11T22:18:04.979Z,99.90
2017-09-11T22:20:31.286Z,99.90
2017-09-11T22:22:57.592Z,99.90
2017-09-11T22:25:24.647Z,99.90
2017-09-11T22:27:50.967Z,99.90
2017-09-11T22:30:18.674Z,99.90
2017-09-11T22:32:45.001Z,99.90
2017-09-11T22:35:11.306Z,99.90
2017-09-11T22:37:37.602Z,99.90
2017-09-11T22:40:03.902Z,99.90
2017-09-11T22:42:30.227Z,99.90
2017-09-11T22:44:56.566Z,99.90
2017-09-11T22:47:22.871Z,99.90
2017-09-11T22:49:49.205Z,99.90
2017-09-11T22:52:15.495Z,99.90
2017-09-11T22:54:45.865Z,99.90
2017-09-11T22:57:12.169Z,99.90
2017-09-11T22:59:38.510Z,99.90
2017-09-11T23:02:04.818Z,99.90
2017-09-11T23:04:31.848Z,99.90
2017-09-11T23:06:58.183Z,99.90
2017-09-11T23:09:24.555Z,99.90
2017-09-11T23:11:50.858Z,99.90
2017-09-11T23:14:17.906Z,99.90
2017-09-11T23:16:44.953Z,99.90
2017-09-11T23:19:12.002Z,99.90
2017-09-11T23:21:40.110Z,99.90
2017-09-11T23:24:06.455Z,99.90
2017-09-11T23:26:32.772Z,99.90
2017-09-11T23:28:59.088Z,99.90
2017-09-11T23:31:26.433Z,99.90
2017-09-11T23:33:52.746Z,99.90
2017-09-11T23:36:20.810Z,99.90
2017-09-11T23:38:47.118Z,99.90
2017-09-11T23:41:13.422Z,99.90
2017-09-11T23:43:40.053Z,99.90
2017-09-11T23:46:07.308Z,99.90
2017-09-11T23:48:33.607Z,99.90
2017-09-11T23:51:00.654Z,99.90
2017-09-11T23:53:27.694Z,99.90
2017-09-11T23:55:54.739Z,99.90
2017-09-11T23:58:21.797Z,99.90
